createdAt,value
2018-03-24T00:00:37.730Z,6.36
2018-03-24T00:01:38.477Z,6.35
2018-03-24T00:02:39.191Z,6.14
2018-03-24T00:03:39.970Z,6.20
2018-03-24T00:04:40.685Z,6.20
2018-03-24T00:05:41.402Z,6.16
2018-03-24T00:06:42.145Z,6.22
2018-03-24T00:07:42.897Z,6.16
2018-03-24T00:08:43.610Z,6.08
2018-03-24T00:09:44.354Z,6.01
2018-03-24T00:10:45.094Z,5.98
2018-03-24T00:11:45.814Z,6.02
2018-03-24T00:12:46.543Z,5.93
2018-03-24T00:13:47.305Z,6.01
2018-03-24T00:14:48.024Z,5.97
2018-03-24T00:15:48.740Z,5.91
2018-03-24T00:16:49.458Z,5.99
2018-03-24T00:17:50.181Z,5.89
2018-03-24T00:18:50.919Z,5.82
2018-03-24T00:19:51.647Z,5.90
2018-03-24T00:20:52.365Z,5.86
2018-03-24T00:21:53.084Z,5.86
2018-03-24T00:22:53.799Z,5.83
2018-03-24T00:23:54.550Z,5.75
2018-03-24T00:24:55.268Z,5.79
2018-03-24T00:25:56.002Z,5.73
2018-03-24T00:26:56.748Z,5.75
2018-03-24T00:27:57.464Z,5.80
2018-03-24T00:28:58.182Z,5.73
2018-03-24T00:29:58.911Z,5.75
2018-03-24T00:30:59.627Z,5.72
2018-03-24T00:32:00.346Z,5.72
2018-03-24T00:33:01.074Z,5.68
2018-03-24T00:34:01.793Z,5.59
2018-03-24T00:35:02.534Z,5.72
2018-03-24T00:36:03.250Z,5.64
2018-03-24T00:37:03.987Z,5.68
2018-03-24T00:38:04.698Z,5.62
2018-03-24T00:39:05.447Z,5.56
2018-03-24T00:40:06.166Z,5.59
2018-03-24T00:41:06.906Z,5.61
2018-03-24T00:42:07.636Z,5.59
2018-03-24T00:43:08.377Z,5.53
2018-03-24T00:44:09.109Z,5.56
2018-03-24T00:45:09.859Z,5.56
2018-03-24T00:46:10.580Z,5.53
2018-03-24T00:47:11.291Z,5.53
2018-03-24T00:48:12.049Z,5.51
2018-03-24T00:49:12.801Z,5.46
2018-03-24T00:50:13.518Z,5.46
2018-03-24T00:51:14.233Z,5.50
2018-03-24T00:52:14.956Z,5.44
2018-03-24T00:53:15.679Z,5.43
2018-03-24T00:54:16.433Z,5.33
2018-03-24T00:55:17.150Z,5.38
2018-03-24T00:56:17.903Z,5.29
2018-03-24T00:57:18.637Z,5.29
2018-03-24T00:58:19.367Z,5.35
2018-03-24T00:59:20.120Z,5.33
2018-03-24T01:00:20.838Z,5.28
2018-03-24T01:01:21.561Z,5.38
2018-03-24T01:02:22.284Z,5.35
2018-03-24T01:03:23.012Z,5.38
2018-03-24T01:04:23.740Z,5.33
2018-03-24T01:05:24.494Z,5.36
2018-03-24T01:06:25.246Z,5.26
2018-03-24T01:07:26.009Z,5.30
2018-03-24T01:08:26.740Z,5.26
2018-03-24T01:09:27.469Z,5.29
2018-03-24T01:10:28.197Z,5.25
2018-03-24T01:11:28.925Z,5.20
2018-03-24T01:12:29.655Z,5.14
2018-03-24T01:13:30.373Z,5.17
2018-03-24T01:14:31.090Z,5.18
2018-03-24T01:15:31.808Z,5.15
2018-03-24T01:16:32.557Z,5.15
2018-03-24T01:17:33.311Z,5.21
2018-03-24T01:18:34.028Z,5.21
2018-03-24T01:19:34.758Z,5.20
2018-03-24T01:20:35.475Z,5.18
2018-03-24T01:21:36.215Z,5.05
2018-03-24T01:22:36.935Z,5.10
2018-03-24T01:23:37.676Z,5.18
2018-03-24T01:24:38.394Z,5.07
2018-03-24T01:25:39.122Z,5.11
2018-03-24T01:26:39.848Z,5.02
2018-03-24T01:27:40.575Z,4.99
2018-03-24T01:28:41.294Z,4.93
2018-03-24T01:29:42.024Z,4.87
2018-03-24T01:30:42.741Z,4.84
2018-03-24T01:31:43.470Z,4.82
2018-03-24T01:32:44.187Z,4.87
2018-03-24T01:33:44.916Z,4.84
2018-03-24T01:34:45.634Z,4.92
2018-03-24T01:35:46.376Z,4.93
2018-03-24T01:36:47.094Z,4.94
2018-03-24T01:37:47.812Z,4.96
2018-03-24T01:38:48.556Z,4.93
2018-03-24T01:39:49.275Z,4.99
2018-03-24T01:40:49.999Z,4.94
2018-03-24T01:41:50.728Z,5.04
2018-03-24T01:42:51.446Z,4.96
2018-03-24T01:43:52.163Z,5.02
2018-03-24T01:44:52.880Z,5.02
2018-03-24T01:45:53.594Z,5.00
2018-03-24T01:46:54.347Z,5.00
2018-03-24T01:47:55.074Z,5.08
2018-03-24T01:48:55.826Z,5.04
2018-03-24T01:49:56.547Z,4.99
2018-03-24T01:50:57.274Z,5.02
2018-03-24T01:51:57.990Z,5.02
2018-03-24T01:52:58.742Z,4.97
2018-03-24T01:53:59.459Z,4.96
2018-03-24T01:55:00.186Z,4.86
2018-03-24T01:56:00.901Z,4.92
2018-03-24T01:57:01.630Z,4.86
2018-03-24T01:58:02.380Z,4.92
2018-03-24T01:59:03.133Z,4.86
2018-03-24T02:00:03.856Z,4.87
2018-03-24T02:01:04.613Z,4.77
2018-03-24T02:02:05.333Z,4.90
2018-03-24T02:03:06.050Z,4.84
2018-03-24T02:04:06.766Z,4.80
2018-03-24T02:05:07.494Z,4.84
2018-03-24T02:06:08.246Z,4.75
2018-03-24T02:07:08.963Z,4.71
2018-03-24T02:08:09.680Z,4.77
2018-03-24T02:09:10.420Z,4.89
2018-03-24T02:10:11.138Z,4.75
2018-03-24T02:11:11.854Z,4.78
2018-03-24T02:12:12.595Z,4.71
2018-03-24T02:13:13.344Z,4.71
2018-03-24T02:14:14.074Z,4.60
2018-03-24T02:15:14.788Z,4.73
2018-03-24T02:16:15.516Z,4.68
2018-03-24T02:17:16.250Z,4.58
2018-03-24T02:18:16.968Z,4.66
2018-03-24T02:19:17.686Z,4.71
2018-03-24T02:20:18.412Z,4.60
2018-03-24T02:21:19.128Z,4.59
2018-03-24T02:22:19.855Z,4.67
2018-03-24T02:23:20.572Z,4.55
2018-03-24T02:24:21.289Z,4.60
2018-03-24T02:25:22.030Z,4.56
2018-03-24T02:26:22.770Z,4.59
2018-03-24T02:27:23.508Z,4.58
2018-03-24T02:28:24.234Z,4.58
2018-03-24T02:29:24.956Z,4.56
2018-03-24T02:30:25.697Z,4.56
2018-03-24T02:31:26.411Z,4.58
2018-03-24T02:32:27.129Z,4.55
2018-03-24T02:33:27.848Z,4.45
2018-03-24T02:34:28.573Z,4.56
2018-03-24T02:35:29.302Z,4.50
2018-03-24T02:36:30.029Z,4.55
2018-03-24T02:37:30.746Z,4.45
2018-03-24T02:38:31.470Z,4.41
2018-03-24T02:39:32.189Z,4.41
2018-03-24T02:40:32.943Z,4.55
2018-03-24T02:41:33.626Z,4.44
2018-03-24T02:42:34.341Z,4.55
2018-03-24T02:43:35.054Z,4.48
2018-03-24T02:44:35.772Z,4.40
2018-03-24T02:45:36.489Z,4.50
2018-03-24T02:46:37.206Z,4.45
2018-03-24T02:47:37.922Z,4.53
2018-03-24T02:48:38.663Z,4.48
2018-03-24T02:49:39.394Z,4.55
2018-03-24T02:50:40.097Z,4.41
2018-03-24T02:51:40.813Z,4.45
2018-03-24T02:52:42.359Z,4.49
2018-03-24T02:53:43.067Z,4.42
2018-03-24T02:54:43.806Z,4.38
2018-03-24T02:55:44.532Z,4.38
2018-03-24T02:56:45.250Z,4.40
2018-03-24T02:57:46.018Z,4.37
2018-03-24T02:58:46.741Z,4.34
2018-03-24T02:59:47.459Z,4.34
2018-03-24T03:00:48.207Z,4.37
2018-03-24T03:01:48.925Z,4.30
2018-03-24T03:02:49.642Z,4.31
2018-03-24T03:03:50.359Z,4.32
2018-03-24T03:04:51.092Z,4.35
2018-03-24T03:05:51.792Z,4.28
2018-03-24T03:06:52.534Z,4.23
2018-03-24T03:07:53.261Z,4.34
2018-03-24T03:08:53.979Z,4.26
2018-03-24T03:09:54.696Z,4.28
2018-03-24T03:10:55.423Z,4.32
2018-03-24T03:11:56.137Z,4.20
2018-03-24T03:12:56.855Z,4.23
2018-03-24T03:13:57.572Z,4.26
2018-03-24T03:14:58.296Z,4.24
2018-03-24T03:15:59.006Z,4.17
2018-03-24T03:16:59.724Z,4.20
2018-03-24T03:18:00.465Z,4.22
2018-03-24T03:19:01.180Z,4.23
2018-03-24T03:20:01.897Z,4.20
2018-03-24T03:21:02.634Z,4.19
2018-03-24T03:22:03.352Z,4.16
2018-03-24T03:23:04.068Z,4.13
2018-03-24T03:24:04.783Z,4.12
2018-03-24T03:25:05.512Z,4.12
2018-03-24T03:26:06.239Z,4.10
2018-03-24T03:27:06.956Z,4.06
2018-03-24T03:28:07.692Z,4.10
2018-03-24T03:29:08.407Z,4.05
2018-03-24T03:30:09.127Z,4.14
2018-03-24T03:31:09.853Z,4.13
2018-03-24T03:32:10.569Z,4.04
2018-03-24T03:33:11.285Z,4.05
2018-03-24T03:34:12.001Z,4.04
2018-03-24T03:35:12.715Z,4.06
2018-03-24T03:36:13.465Z,3.96
2018-03-24T03:37:14.186Z,3.95
2018-03-24T03:38:14.900Z,3.94
2018-03-24T03:39:15.616Z,3.95
2018-03-24T03:40:16.377Z,3.96
2018-03-24T03:41:17.044Z,3.91
2018-03-24T03:42:17.761Z,3.92
2018-03-24T03:43:18.488Z,3.87
2018-03-24T03:44:19.203Z,3.83
2018-03-24T03:45:19.940Z,3.84
2018-03-24T03:46:20.685Z,3.77
2018-03-24T03:47:21.402Z,3.73
2018-03-24T03:48:22.129Z,3.87
2018-03-24T03:49:22.845Z,3.83
2018-03-24T03:50:23.560Z,3.83
2018-03-24T03:51:24.278Z,3.86
2018-03-24T03:52:24.994Z,3.81
2018-03-24T03:53:25.722Z,3.69
2018-03-24T03:54:26.483Z,3.86
2018-03-24T03:55:27.235Z,3.76
2018-03-24T03:56:27.967Z,3.86
2018-03-24T03:57:28.678Z,3.69
2018-03-24T03:58:29.406Z,3.70
2018-03-24T03:59:30.122Z,3.76
2018-03-24T04:00:30.849Z,3.78
2018-03-24T04:01:31.565Z,3.74
2018-03-24T04:02:32.284Z,3.70
2018-03-24T04:03:33.000Z,3.66
2018-03-24T04:04:33.716Z,3.69
2018-03-24T04:05:34.445Z,3.66
2018-03-24T04:06:35.170Z,3.65
2018-03-24T04:07:35.885Z,3.74
2018-03-24T04:08:36.626Z,3.73
2018-03-24T04:09:37.340Z,3.66
2018-03-24T04:10:38.080Z,3.69
2018-03-24T04:11:38.824Z,3.69
2018-03-24T04:12:39.573Z,3.68
2018-03-24T04:13:40.289Z,3.63
2018-03-24T04:14:41.028Z,3.62
2018-03-24T04:15:41.745Z,3.59
2018-03-24T04:16:42.473Z,3.58
2018-03-24T04:17:43.186Z,3.59
2018-03-24T04:18:43.914Z,3.60
2018-03-24T04:19:44.664Z,3.58
2018-03-24T04:20:45.380Z,3.56
2018-03-24T04:21:46.095Z,3.58
2018-03-24T04:22:46.812Z,3.58
2018-03-24T04:23:47.526Z,3.56
2018-03-24T04:24:48.241Z,3.53
2018-03-24T04:25:48.960Z,3.53
2018-03-24T04:26:49.712Z,3.56
2018-03-24T04:27:50.439Z,3.50
2018-03-24T04:28:51.157Z,3.53
2018-03-24T04:29:51.883Z,3.59
2018-03-24T04:30:52.597Z,3.47
2018-03-24T04:31:53.311Z,3.58
2018-03-24T04:32:54.032Z,3.48
2018-03-24T04:33:54.745Z,3.48
2018-03-24T04:34:55.475Z,3.45
2018-03-24T04:35:56.182Z,3.50
2018-03-24T04:36:56.895Z,3.50
2018-03-24T04:37:57.608Z,3.47
2018-03-24T04:38:58.335Z,3.47
2018-03-24T04:39:59.050Z,3.41
2018-03-24T04:40:59.768Z,3.44
2018-03-24T04:42:00.495Z,3.45
2018-03-24T04:43:01.227Z,3.47
2018-03-24T04:44:01.946Z,3.44
2018-03-24T04:45:02.691Z,3.44
2018-03-24T04:46:03.420Z,3.37
2018-03-24T04:47:04.145Z,3.29
2018-03-24T04:48:04.874Z,3.32
2018-03-24T04:49:05.633Z,3.29
2018-03-24T04:50:06.360Z,3.29
2018-03-24T04:51:07.086Z,3.19
2018-03-24T04:52:07.813Z,3.25
2018-03-24T04:53:08.529Z,3.21
2018-03-24T04:54:09.283Z,3.14
2018-03-24T04:55:09.999Z,3.22
2018-03-24T04:56:10.755Z,3.14
2018-03-24T04:57:11.493Z,3.19
2018-03-24T04:58:12.197Z,3.03
2018-03-24T04:59:12.936Z,3.18
2018-03-24T05:00:13.610Z,3.13
2018-03-24T05:01:14.329Z,3.08
2018-03-24T05:02:15.035Z,3.19
2018-03-24T05:03:15.742Z,3.21
2018-03-24T05:04:16.450Z,3.23
2018-03-24T05:05:17.158Z,3.11
2018-03-24T05:06:17.867Z,3.21
2018-03-24T05:07:18.573Z,3.29
2018-03-24T05:08:19.294Z,3.28
2018-03-24T05:09:20.004Z,3.32
2018-03-24T05:10:20.712Z,3.36
2018-03-24T05:11:21.421Z,3.26
2018-03-24T05:12:22.130Z,3.31
2018-03-24T05:13:22.836Z,3.26
2018-03-24T05:14:23.544Z,3.31
2018-03-24T05:15:24.252Z,3.31
2018-03-24T05:16:24.966Z,3.31
2018-03-24T05:17:25.666Z,3.23
2018-03-24T05:18:26.378Z,3.31
2018-03-24T05:19:27.082Z,3.18
2018-03-24T05:20:27.789Z,3.22
2018-03-24T05:21:28.496Z,3.21
2018-03-24T05:22:29.205Z,3.21
2018-03-24T05:23:29.912Z,3.21
2018-03-24T05:24:30.620Z,3.19
2018-03-24T05:25:31.328Z,3.08
2018-03-24T05:26:32.052Z,3.07
2018-03-24T05:27:32.762Z,3.18
2018-03-24T05:28:33.473Z,3.13
2018-03-24T05:29:34.196Z,3.00
2018-03-24T05:30:34.906Z,3.05
2018-03-24T05:31:35.616Z,3.04
2018-03-24T05:32:36.324Z,2.95
2018-03-24T05:33:37.037Z,3.01
2018-03-24T05:34:37.759Z,2.97
2018-03-24T05:35:38.468Z,2.98
2018-03-24T05:36:39.193Z,3.05
2018-03-24T05:37:39.899Z,2.98
2018-03-24T05:38:40.607Z,2.95
2018-03-24T05:39:41.315Z,2.98
2018-03-24T05:40:42.026Z,2.95
2018-03-24T05:41:42.736Z,2.92
2018-03-24T05:42:43.460Z,2.95
2018-03-24T05:43:44.170Z,2.92
2018-03-24T05:44:44.881Z,2.95
2018-03-24T05:45:45.591Z,2.90
2018-03-24T05:46:46.300Z,2.92
2018-03-24T05:47:47.008Z,3.03
2018-03-24T05:48:47.717Z,3.03
2018-03-24T05:49:48.427Z,3.00
2018-03-24T05:50:49.138Z,3.04
2018-03-24T05:51:49.852Z,3.07
2018-03-24T05:52:50.562Z,3.05
2018-03-24T05:53:51.273Z,3.10
2018-03-24T05:54:51.984Z,3.11
2018-03-24T05:55:52.696Z,3.07
2018-03-24T05:56:53.408Z,3.19
2018-03-24T05:57:54.118Z,3.25
2018-03-24T05:58:54.830Z,3.21
2018-03-24T05:59:55.541Z,3.26
2018-03-24T06:00:56.253Z,3.37
2018-03-24T06:01:56.979Z,3.42
2018-03-24T06:02:57.705Z,3.45
2018-03-24T06:03:58.422Z,3.44
2018-03-24T06:04:59.129Z,3.55
2018-03-24T06:05:59.842Z,3.59
2018-03-24T06:07:00.554Z,3.73
2018-03-24T06:08:01.266Z,3.69
2018-03-24T06:09:01.978Z,3.78
2018-03-24T06:10:02.690Z,3.92
2018-03-24T06:11:03.401Z,3.99
2018-03-24T06:12:04.117Z,4.04
2018-03-24T06:13:04.837Z,4.20
2018-03-24T06:14:05.562Z,4.19
2018-03-24T06:15:06.274Z,4.31
2018-03-24T06:16:06.987Z,4.26
2018-03-24T06:17:07.700Z,4.31
2018-03-24T06:18:08.414Z,4.37
2018-03-24T06:19:09.128Z,4.49
2018-03-24T06:20:09.842Z,4.52
2018-03-24T06:21:10.566Z,4.53
2018-03-24T06:22:11.279Z,4.56
2018-03-24T06:23:11.993Z,4.58
2018-03-24T06:24:12.708Z,4.74
2018-03-24T06:25:13.422Z,4.87
2018-03-24T06:26:14.135Z,4.99
2018-03-24T06:27:14.848Z,5.07
2018-03-24T06:28:15.574Z,5.10
2018-03-24T06:29:16.288Z,4.97
2018-03-24T06:30:17.002Z,5.05
2018-03-24T06:31:17.718Z,5.12
2018-03-24T06:32:18.431Z,5.15
2018-03-24T06:33:19.147Z,5.14
2018-03-24T06:34:19.876Z,5.08
2018-03-24T06:35:20.590Z,4.96
2018-03-24T06:36:21.312Z,5.00
2018-03-24T06:37:22.019Z,5.05
2018-03-24T06:38:22.736Z,5.20
2018-03-24T06:39:23.450Z,5.35
2018-03-24T06:40:24.164Z,5.35
2018-03-24T06:41:24.878Z,5.15
2018-03-24T06:42:25.595Z,5.15
2018-03-24T06:43:26.310Z,5.17
2018-03-24T06:44:27.024Z,5.10
2018-03-24T06:45:27.750Z,5.04
2018-03-24T06:46:28.481Z,5.11
2018-03-24T06:47:29.194Z,5.38
2018-03-24T06:48:29.908Z,5.29
2018-03-24T06:49:30.622Z,5.36
2018-03-24T06:50:31.339Z,5.47
2018-03-24T06:51:32.055Z,5.75
2018-03-24T06:52:32.769Z,5.84
2018-03-24T06:53:33.485Z,5.73
2018-03-24T06:54:34.213Z,5.89
2018-03-24T06:55:34.929Z,6.07
2018-03-24T06:56:35.661Z,6.02
2018-03-24T06:57:36.375Z,6.09
2018-03-24T06:58:37.091Z,6.12
2018-03-24T06:59:37.807Z,6.19
2018-03-24T07:00:38.546Z,6.41
2018-03-24T07:01:39.244Z,6.30
2018-03-24T07:02:39.958Z,6.49
2018-03-24T07:03:40.680Z,6.52
2018-03-24T07:04:41.410Z,6.59
2018-03-24T07:05:42.130Z,6.51
2018-03-24T07:06:42.867Z,6.63
2018-03-24T07:07:43.615Z,6.67
2018-03-24T07:08:44.297Z,6.70
2018-03-24T07:09:45.015Z,6.67
2018-03-24T07:10:45.733Z,6.78
2018-03-24T07:11:46.466Z,6.72
2018-03-24T07:12:47.184Z,6.69
2018-03-24T07:13:47.903Z,6.74
2018-03-24T07:14:48.622Z,6.74
2018-03-24T07:15:49.386Z,6.67
2018-03-24T07:16:50.061Z,6.70
2018-03-24T07:17:50.781Z,6.59
2018-03-24T07:18:51.498Z,6.51
2018-03-24T07:19:52.219Z,6.57
2018-03-24T07:20:52.938Z,6.36
2018-03-24T07:21:53.658Z,6.44
2018-03-24T07:22:54.379Z,6.67
2018-03-24T07:23:55.099Z,6.79
2018-03-24T07:24:55.831Z,6.72
2018-03-24T07:25:56.550Z,6.84
2018-03-24T07:26:57.284Z,6.79
2018-03-24T07:27:58.007Z,6.79
2018-03-24T07:28:58.786Z,6.95
2018-03-24T07:29:59.460Z,6.84
2018-03-24T07:31:00.185Z,7.10
2018-03-24T07:32:00.899Z,7.05
2018-03-24T07:33:01.621Z,7.18
2018-03-24T07:34:02.340Z,7.31
2018-03-24T07:35:03.083Z,7.48
2018-03-24T07:36:03.802Z,7.50
2018-03-24T07:37:04.518Z,7.83
2018-03-24T07:38:05.259Z,7.79
2018-03-24T07:39:05.987Z,7.72
2018-03-24T07:40:06.724Z,7.95
2018-03-24T07:41:07.449Z,7.93
2018-03-24T07:42:08.167Z,7.87
2018-03-24T07:43:08.889Z,7.82
2018-03-24T07:44:09.625Z,7.75
2018-03-24T07:45:10.347Z,7.76
2018-03-24T07:46:11.069Z,7.76
2018-03-24T07:47:11.790Z,7.97
2018-03-24T07:48:12.513Z,8.13
2018-03-24T07:49:13.233Z,8.24
2018-03-24T07:50:13.954Z,8.13
2018-03-24T07:51:14.677Z,7.77
2018-03-24T07:52:15.399Z,8.08
2018-03-24T07:53:16.121Z,8.23
2018-03-24T07:54:16.844Z,8.41
2018-03-24T07:55:17.567Z,8.18
2018-03-24T07:56:18.289Z,8.26
2018-03-24T07:57:19.013Z,8.41
2018-03-24T07:58:19.735Z,8.73
2018-03-24T07:59:20.457Z,9.19
2018-03-24T08:00:21.179Z,9.29
2018-03-24T08:01:21.916Z,9.72
2018-03-24T08:02:22.640Z,9.62
2018-03-24T08:03:23.365Z,10.04
2018-03-24T08:04:24.111Z,10.01
2018-03-24T08:05:24.827Z,10.02
2018-03-24T08:06:25.567Z,10.09
2018-03-24T08:07:26.293Z,10.10
2018-03-24T08:08:27.017Z,9.97
2018-03-24T08:09:27.758Z,10.40
2018-03-24T08:10:28.482Z,10.35
2018-03-24T08:11:29.208Z,9.99
2018-03-24T08:12:29.934Z,10.15
2018-03-24T08:13:30.663Z,10.37
2018-03-24T08:14:31.388Z,10.28
2018-03-24T08:15:32.115Z,10.44
2018-03-24T08:16:32.840Z,10.72
2018-03-24T08:17:33.566Z,10.81
2018-03-24T08:18:34.296Z,11.26
2018-03-24T08:19:35.034Z,11.54
2018-03-24T08:20:35.774Z,11.47
2018-03-24T08:21:36.502Z,11.45
2018-03-24T08:22:37.230Z,11.36
2018-03-24T08:23:37.957Z,10.72
2018-03-24T08:24:38.684Z,10.82
2018-03-24T08:25:39.410Z,9.77
2018-03-24T08:26:40.137Z,10.26
2018-03-24T08:27:40.864Z,10.53
2018-03-24T08:28:41.593Z,10.56
2018-03-24T08:29:42.323Z,10.51
2018-03-24T08:30:43.048Z,10.23
2018-03-24T08:31:43.777Z,10.44
2018-03-24T08:32:44.518Z,10.48
2018-03-24T08:33:45.258Z,10.48
2018-03-24T08:34:45.983Z,10.56
2018-03-24T08:35:46.714Z,11.10
2018-03-24T08:36:47.442Z,10.94
2018-03-24T08:37:48.168Z,11.32
2018-03-24T08:38:48.911Z,11.41
2018-03-24T08:39:49.642Z,11.44
2018-03-24T08:40:50.368Z,11.47
2018-03-24T08:41:51.097Z,11.32
2018-03-24T08:42:51.840Z,11.43
2018-03-24T08:43:52.570Z,10.84
2018-03-24T08:44:53.297Z,11.40
2018-03-24T08:45:54.024Z,11.54
2018-03-24T08:46:54.751Z,11.54
2018-03-24T08:47:55.478Z,11.17
2018-03-24T08:48:56.221Z,11.47
2018-03-24T08:49:56.948Z,11.50
2018-03-24T08:50:57.696Z,11.84
2018-03-24T08:51:58.435Z,11.81
2018-03-24T08:52:59.162Z,11.84
2018-03-24T08:53:59.908Z,11.95
2018-03-24T08:55:00.648Z,12.15
2018-03-24T08:56:01.380Z,12.42
2018-03-24T08:57:02.115Z,12.85
2018-03-24T08:58:02.847Z,12.85
2018-03-24T08:59:03.573Z,12.79
2018-03-24T09:00:04.304Z,13.05
2018-03-24T09:01:05.037Z,13.11
2018-03-24T09:02:05.768Z,13.50
2018-03-24T09:03:06.499Z,13.68
2018-03-24T09:04:07.232Z,14.11
2018-03-24T09:05:07.964Z,14.48
2018-03-24T09:06:08.696Z,14.70
2018-03-24T09:07:09.431Z,14.62
2018-03-24T09:08:10.160Z,15.10
2018-03-24T09:09:10.892Z,15.39
2018-03-24T09:10:11.627Z,15.86
2018-03-24T09:11:12.359Z,15.28
2018-03-24T09:12:13.107Z,14.44
2018-03-24T09:13:13.842Z,14.36
2018-03-24T09:14:14.586Z,14.59
2018-03-24T09:15:15.319Z,14.04
2018-03-24T09:16:16.058Z,14.10
2018-03-24T09:17:16.802Z,14.22
2018-03-24T09:18:17.541Z,14.36
2018-03-24T09:19:18.285Z,14.66
2018-03-24T09:20:19.018Z,14.41
2018-03-24T09:21:19.753Z,14.20
2018-03-24T09:22:20.488Z,14.33
2018-03-24T09:23:21.223Z,14.41
2018-03-24T09:24:21.960Z,14.10
2018-03-24T09:25:22.695Z,14.60
2018-03-24T09:26:23.433Z,14.30
2018-03-24T09:27:24.185Z,14.12
2018-03-24T09:28:24.929Z,14.29
2018-03-24T09:29:25.676Z,14.37
2018-03-24T09:30:26.414Z,14.41
2018-03-24T09:31:27.151Z,14.28
2018-03-24T09:32:27.889Z,14.20
2018-03-24T09:33:28.643Z,14.41
2018-03-24T09:34:29.378Z,14.60
2018-03-24T09:35:30.132Z,14.96
2018-03-24T09:36:30.869Z,14.97
2018-03-24T09:37:31.609Z,14.79
2018-03-24T09:38:32.345Z,15.06
2018-03-24T09:39:33.082Z,14.48
2018-03-24T09:40:33.820Z,14.51
2018-03-24T09:41:34.565Z,14.70
2018-03-24T09:42:35.301Z,15.03
2018-03-24T09:43:36.035Z,15.33
2018-03-24T09:44:36.774Z,15.10
2018-03-24T09:45:37.513Z,15.15
2018-03-24T09:46:38.250Z,15.28
2018-03-24T09:47:38.994Z,15.59
2018-03-24T09:48:39.726Z,15.80
2018-03-24T09:49:40.462Z,14.81
2018-03-24T09:50:41.200Z,14.91
2018-03-24T09:51:41.954Z,15.17
2018-03-24T09:52:42.754Z,15.09
2018-03-24T09:53:43.443Z,15.31
2018-03-24T09:54:44.192Z,15.77
2018-03-24T09:55:44.927Z,16.09
2018-03-24T09:56:45.665Z,16.29
2018-03-24T09:57:46.403Z,14.88
2018-03-24T09:58:47.152Z,15.04
2018-03-24T09:59:47.904Z,15.04
2018-03-24T10:00:48.642Z,14.85
2018-03-24T10:01:49.380Z,15.28
2018-03-24T10:02:50.115Z,16.00
2018-03-24T10:03:50.850Z,16.38
2018-03-24T10:04:51.590Z,17.01
2018-03-24T10:05:52.318Z,17.67
2018-03-24T10:06:53.059Z,17.60
2018-03-24T10:07:53.795Z,16.78
2018-03-24T10:08:54.541Z,16.58
2018-03-24T10:09:55.290Z,16.89
2018-03-24T10:10:56.028Z,16.33
2018-03-24T10:11:56.773Z,16.50
2018-03-24T10:12:57.508Z,16.50
2018-03-24T10:13:58.245Z,16.66
2018-03-24T10:14:58.980Z,16.91
2018-03-24T10:15:59.713Z,16.01
2018-03-24T10:17:00.451Z,16.01
2018-03-24T10:18:01.189Z,15.80
2018-03-24T10:19:01.972Z,15.55
2018-03-24T10:20:02.656Z,15.68
2018-03-24T10:21:03.391Z,15.43
2018-03-24T10:22:04.125Z,14.82
2018-03-24T10:23:04.862Z,14.40
2018-03-24T10:24:05.595Z,13.87
2018-03-24T10:25:06.331Z,13.78
2018-03-24T10:26:07.067Z,13.65
2018-03-24T10:27:07.804Z,13.42
2018-03-24T10:28:08.550Z,13.85
2018-03-24T10:29:09.290Z,14.35
2018-03-24T10:30:10.027Z,15.21
2018-03-24T10:31:10.776Z,15.33
2018-03-24T10:32:11.513Z,15.57
2018-03-24T10:33:12.249Z,15.70
2018-03-24T10:34:12.984Z,16.01
2018-03-24T10:35:13.723Z,15.35
2018-03-24T10:36:14.461Z,16.28
2018-03-24T10:37:15.199Z,15.95
2018-03-24T10:38:15.946Z,15.28
2018-03-24T10:39:16.684Z,15.02
2018-03-24T10:40:17.417Z,15.64
2018-03-24T10:41:18.151Z,16.08
2018-03-24T10:42:18.887Z,15.83
2018-03-24T10:43:19.619Z,15.62
2018-03-24T10:44:20.353Z,15.76
2018-03-24T10:45:21.088Z,15.10
2018-03-24T10:46:21.821Z,15.39
2018-03-24T10:47:22.561Z,15.18
2018-03-24T10:48:23.293Z,15.02
2018-03-24T10:49:24.031Z,14.78
2018-03-24T10:50:24.782Z,14.86
2018-03-24T10:51:25.521Z,14.73
2018-03-24T10:52:26.270Z,14.23
2018-03-24T10:53:26.997Z,15.09
2018-03-24T10:54:27.733Z,15.25
2018-03-24T10:55:28.470Z,14.92
2018-03-24T10:56:29.208Z,15.82
2018-03-24T10:57:29.959Z,16.43
2018-03-24T10:58:30.694Z,15.73
2018-03-24T10:59:31.431Z,16.54
2018-03-24T11:00:32.178Z,15.83
2018-03-24T11:01:32.913Z,15.64
2018-03-24T11:02:33.653Z,15.68
2018-03-24T11:03:34.390Z,14.99
2018-03-24T11:04:35.138Z,14.99
2018-03-24T11:05:35.874Z,15.04
2018-03-24T11:06:36.611Z,14.96
2018-03-24T11:07:37.354Z,14.30
2018-03-24T11:08:38.082Z,14.05
2018-03-24T11:09:38.831Z,13.89
2018-03-24T11:10:39.562Z,13.62
2018-03-24T11:11:40.306Z,13.60
2018-03-24T11:12:41.040Z,13.27
2018-03-24T11:13:41.772Z,13.33
2018-03-24T11:14:42.502Z,13.62
2018-03-24T11:15:43.236Z,14.00
2018-03-24T11:16:43.967Z,13.87
2018-03-24T11:17:44.713Z,14.26
2018-03-24T11:18:45.450Z,14.29
2018-03-24T11:19:46.183Z,14.77
2018-03-24T11:20:46.917Z,14.92
2018-03-24T11:21:47.653Z,14.51
2018-03-24T11:22:48.387Z,14.37
2018-03-24T11:23:49.117Z,14.22
2018-03-24T11:24:49.849Z,14.12
2018-03-24T11:25:50.581Z,14.22
2018-03-24T11:26:51.311Z,14.04
2018-03-24T11:27:52.049Z,13.59
2018-03-24T11:28:52.772Z,13.19
2018-03-24T11:29:53.510Z,12.85
2018-03-24T11:30:54.245Z,13.16
2018-03-24T11:31:54.975Z,13.27
2018-03-24T11:32:55.711Z,13.92
2018-03-24T11:33:56.453Z,14.55
2018-03-24T11:34:57.187Z,14.81
2018-03-24T11:35:57.934Z,15.46
2018-03-24T11:36:58.671Z,15.83
2018-03-24T11:37:59.406Z,16.66
2018-03-24T11:39:00.142Z,15.52
2018-03-24T11:40:00.892Z,15.22
2018-03-24T11:41:01.626Z,14.97
2018-03-24T11:42:02.361Z,14.82
2018-03-24T11:43:03.095Z,14.12
2018-03-24T11:44:03.830Z,14.15
2018-03-24T11:45:04.577Z,14.11
2018-03-24T11:46:05.306Z,14.17
2018-03-24T11:47:06.035Z,14.20
2018-03-24T11:48:06.778Z,14.10
2018-03-24T11:49:07.507Z,14.10
2018-03-24T11:50:08.235Z,13.68
2018-03-24T11:51:08.978Z,13.62
2018-03-24T11:52:09.718Z,13.57
2018-03-24T11:53:10.448Z,13.70
2018-03-24T11:54:11.176Z,13.41
2018-03-24T11:55:11.915Z,13.49
2018-03-24T11:56:12.648Z,13.03
2018-03-24T11:57:13.370Z,12.76
2018-03-24T11:58:14.096Z,12.61
2018-03-24T11:59:14.821Z,12.45
2018-03-24T12:00:15.547Z,12.45
2018-03-24T12:01:16.272Z,12.18
2018-03-24T12:02:17.001Z,12.24
2018-03-24T12:03:17.739Z,12.50
2018-03-24T12:04:18.463Z,12.47
2018-03-24T12:05:19.201Z,12.60
2018-03-24T12:06:19.931Z,12.68
2018-03-24T12:07:20.657Z,12.75
2018-03-24T12:08:21.438Z,12.78
2018-03-24T12:09:22.108Z,12.83
2018-03-24T12:10:22.831Z,12.87
2018-03-24T12:11:23.553Z,12.67
2018-03-24T12:12:24.278Z,12.76
2018-03-24T12:13:25.002Z,12.75
2018-03-24T12:14:25.738Z,12.58
2018-03-24T12:15:26.472Z,12.53
2018-03-24T12:16:27.257Z,12.47
2018-03-24T12:17:27.931Z,12.49
2018-03-24T12:18:28.666Z,12.37
2018-03-24T12:19:29.389Z,12.28
2018-03-24T12:20:30.113Z,12.24
2018-03-24T12:21:30.835Z,12.39
2018-03-24T12:23:24.212Z,12.31
2018-03-24T12:24:24.934Z,12.29
2018-03-24T12:25:26.060Z,12.07
2018-03-24T12:26:26.782Z,11.97
2018-03-24T12:27:27.504Z,12.04
2018-03-24T12:28:28.227Z,12.18
2018-03-24T12:29:28.949Z,12.17
2018-03-24T12:30:29.683Z,12.28
2018-03-24T12:31:30.404Z,12.20
2018-03-24T12:32:31.124Z,12.22
2018-03-24T12:33:31.860Z,12.32
2018-03-24T12:34:32.581Z,12.24
2018-03-24T12:35:33.302Z,11.99
2018-03-24T12:36:34.027Z,11.84
2018-03-24T12:37:34.750Z,11.88
2018-03-24T12:38:35.485Z,11.80
2018-03-24T12:39:36.207Z,12.17
2018-03-24T12:40:36.930Z,12.15
2018-03-24T12:41:37.654Z,12.28
2018-03-24T12:42:38.374Z,12.37
2018-03-24T12:43:39.100Z,12.36
2018-03-24T12:44:39.823Z,12.61
2018-03-24T12:45:40.544Z,12.70
2018-03-24T12:46:41.266Z,12.80
2018-03-24T12:47:41.988Z,12.78
2018-03-24T12:48:42.728Z,12.87
2018-03-24T12:49:43.446Z,12.68
2018-03-24T12:50:44.169Z,12.73
2018-03-24T12:51:44.892Z,12.79
2018-03-24T12:52:45.614Z,12.73
2018-03-24T12:53:46.342Z,12.64
2018-03-24T12:54:47.074Z,12.57
2018-03-24T12:55:47.795Z,12.60
2018-03-24T12:56:48.528Z,12.31
2018-03-24T12:57:49.257Z,12.22
2018-03-24T12:58:49.986Z,12.18
2018-03-24T12:59:50.706Z,12.04
2018-03-24T13:00:51.428Z,12.02
2018-03-24T13:01:52.151Z,11.95
2018-03-24T13:02:52.875Z,12.03
2018-03-24T13:03:53.595Z,12.10
2018-03-24T13:04:54.316Z,12.18
2018-03-24T13:05:55.044Z,12.28
2018-03-24T13:06:55.761Z,12.37
2018-03-24T13:07:56.481Z,12.49
2018-03-24T13:08:57.205Z,12.70
2018-03-24T13:09:57.927Z,12.68
2018-03-24T13:10:58.648Z,12.79
2018-03-24T13:11:59.370Z,12.60
2018-03-24T13:13:00.092Z,12.54
2018-03-24T13:14:00.829Z,12.54
2018-03-24T13:15:01.560Z,12.35
2018-03-24T13:16:02.282Z,12.28
2018-03-24T13:17:03.005Z,12.24
2018-03-24T13:18:03.725Z,12.35
2018-03-24T13:19:04.446Z,12.35